Time;durP1;ratioP1;P1;durP2;ratioP2;P2;SDS_P1;SDS_P2;PMS_P1;PMS_P2;Temp;Humidity;BMP_temperature;BMP_pressure;BME280_temperature;BME280_humidity;BME280_pressure;Samples;Min_cycle;Max_cycle;Signal;HPM_P1;HPM_P2
2022/04/30 00:00:21;;;;;;;25.67;14.60;;;;;;;;;;5034668;28;20232;-61
2022/04/30 00:03:01;;;;;;;21.95;14.07;;;;;;;;;;5034169;28;20276;-61
2022/04/30 00:05:33;;;;;;;25.15;14.75;;;;;;;;;;5034175;28;20231;-60
2022/04/30 00:08:03;;;;;;;23.15;14.15;;;;;;;;;;5037200;28;20601;-61
2022/04/30 00:10:37;;;;;;;24.95;14.93;;;;;;;;;;5037845;28;20269;-61
2022/04/30 00:13:06;;;;;;;36.78;21.92;;;;;;;;;;5038001;28;20689;-61
2022/04/30 00:15:34;;;;;;;23.00;15.82;;;;;;;;;;5037951;28;20211;-61
2022/04/30 00:18:02;;;;;;;24.35;15.35;;;;;;;;;;5037691;28;20212;-61
2022/04/30 00:20:29;;;;;;;25.13;14.90;;;;;;;;;;5038371;28;20658;-62
2022/04/30 00:22:57;;;;;;;23.38;14.98;;;;;;;;;;5037643;28;20267;-61
2022/04/30 00:25:24;;;;;;;25.23;16.77;;;;;;;;;;5037754;28;20201;-61
2022/04/30 00:27:51;;;;;;;20.73;14.35;;;;;;;;;;5037551;28;20201;-61
2022/04/30 00:30:20;;;;;;;28.55;20.08;;;;;;;;;;5037555;28;20196;-62
2022/04/30 00:32:48;;;;;;;32.63;21.50;;;;;;;;;;5037530;28;20228;-61
2022/04/30 00:35:15;;;;;;;32.70;21.33;;;;;;;;;;5037677;28;20204;-61
2022/04/30 00:37:42;;;;;;;34.60;22.38;;;;;;;;;;5037714;28;20262;-62
2022/04/30 00:40:10;;;;;;;35.30;23.73;;;;;;;;;;5037353;28;20291;-61
2022/04/30 00:42:37;;;;;;;35.75;23.20;;;;;;;;;;5037485;28;20223;-61
2022/04/30 00:45:04;;;;;;;31.80;21.25;;;;;;;;;;5037439;28;20255;-61
2022/04/30 00:47:31;;;;;;;32.55;21.02;;;;;;;;;;5037598;28;20224;-61
2022/04/30 00:49:58;;;;;;;27.05;19.05;;;;;;;;;;5037900;28;20233;-62
2022/04/30 00:52:26;;;;;;;30.90;20.20;;;;;;;;;;5037161;28;20232;-61
2022/04/30 00:54:58;;;;;;;33.78;19.73;;;;;;;;;;5036308;28;20631;-61
2022/04/30 00:57:28;;;;;;;29.08;18.92;;;;;;;;;;5038067;28;20270;-62
2022/04/30 01:00:00;;;;;;;33.80;21.00;;;;;;;;;;5036897;28;20212;-62
2022/04/30 01:02:29;;;;;;;31.35;19.88;;;;;;;;;;5037327;28;20204;-61
2022/04/30 01:05:15;;;;;;;27.65;19.45;;;;;;;;;;5037009;28;20211;-61
2022/04/30 01:07:42;;;;;;;27.70;18.02;;;;;;;;;;5037270;28;20208;-61
2022/04/30 01:10:10;;;;;;;32.40;17.65;;;;;;;;;;5036961;28;20229;-61
2022/04/30 01:12:37;;;;;;;27.88;17.70;;;;;;;;;;5036893;28;20235;-61
2022/04/30 01:15:06;;;;;;;23.42;17.40;;;;;;;;;;5036768;28;20204;-61
2022/04/30 01:17:35;;;;;;;23.13;14.73;;;;;;;;;;5037059;28;20209;-61
2022/04/30 01:20:04;;;;;;;23.00;16.33;;;;;;;;;;5034794;28;20262;-61
2022/04/30 01:22:50;;;;;;;26.60;16.65;;;;;;;;;;5037361;28;20204;-61
2022/04/30 01:25:17;;;;;;;24.05;15.60;;;;;;;;;;5037022;28;20570;-61
2022/04/30 01:27:45;;;;;;;23.30;15.00;;;;;;;;;;5036449;28;20648;-61
2022/04/30 01:30:13;;;;;;;32.38;19.58;;;;;;;;;;5035461;28;20204;-61
2022/04/30 01:38:12;;;;;;;30.90;18.35;;;;;;;;;;5034099;28;20230;-61
2022/04/30 01:40:39;;;;;;;32.50;18.40;;;;;;;;;;5036397;28;20204;-60
2022/04/30 01:43:07;;;;;;;30.13;18.85;;;;;;;;;;5028044;28;20296;-60
2022/04/30 01:45:35;;;;;;;29.02;19.42;;;;;;;;;;5016792;28;20537;-59
2022/04/30 01:48:04;;;;;;;37.60;20.50;;;;;;;;;;5015584;28;20218;-60
2022/04/30 01:50:33;;;;;;;34.85;20.80;;;;;;;;;;4999296;28;20229;-60
2022/04/30 01:53:01;;;;;;;30.92;19.63;;;;;;;;;;5016683;28;20213;-61
2022/04/30 01:55:28;;;;;;;35.17;19.80;;;;;;;;;;5016051;28;20216;-61
2022/04/30 01:58:00;;;;;;;32.45;20.13;;;;;;;;;;5015325;28;20233;-60
2022/04/30 02:00:27;;;;;;;30.70;20.63;;;;;;;;;;5016237;28;20554;-60
2022/04/30 02:03:05;;;;;;;30.50;20.77;;;;;;;;;;5016085;28;20209;-61
2022/04/30 02:05:33;;;;;;;32.28;20.60;;;;;;;;;;5015962;28;20271;-61
2022/04/30 02:08:04;;;;;;;27.85;18.75;;;;;;;;;;4999860;28;20228;-61
2022/04/30 02:10:31;;;;;;;28.75;18.95;;;;;;;;;;5015526;28;20202;-62
2022/04/30 02:12:58;;;;;;;26.55;18.00;;;;;;;;;;5014765;28;20232;-61
2022/04/30 02:15:26;;;;;;;24.15;17.02;;;;;;;;;;5015757;28;20209;-61
2022/04/30 02:17:54;;;;;;;33.10;18.92;;;;;;;;;;5015937;28;20209;-61
2022/04/30 02:20:31;;;;;;;27.42;18.13;;;;;;;;;;5015033;28;20205;-61
2022/04/30 02:23:01;;;;;;;31.67;21.52;;;;;;;;;;5015346;28;20231;-61
2022/04/30 02:25:29;;;;;;;30.02;18.55;;;;;;;;;;5015698;28;20636;-61
2022/04/30 02:27:58;;;;;;;30.67;20.55;;;;;;;;;;5015505;28;20259;-61
2022/04/30 02:30:29;;;;;;;28.35;19.40;;;;;;;;;;5015313;28;20209;-62
2022/04/30 02:32:57;;;;;;;28.40;18.35;;;;;;;;;;5015636;28;20229;-61
2022/04/30 02:35:26;;;;;;;26.02;18.35;;;;;;;;;;5015565;28;20296;-63
2022/04/30 02:37:58;;;;;;;28.85;19.25;;;;;;;;;;5015225;28;20209;-61
2022/04/30 02:40:28;;;;;;;30.63;17.50;;;;;;;;;;5015379;28;20201;-62
2022/04/30 02:43:02;;;;;;;26.75;16.98;;;;;;;;;;5015011;28;20216;-62
2022/04/30 02:45:29;;;;;;;25.33;16.52;;;;;;;;;;5015061;28;20205;-61
2022/04/30 02:47:57;;;;;;;26.38;16.63;;;;;;;;;;5015575;28;20205;-61
2022/04/30 02:50:25;;;;;;;26.33;16.50;;;;;;;;;;5014795;28;20291;-62
2022/04/30 02:52:55;;;;;;;26.50;17.48;;;;;;;;;;5014850;28;20257;-62
2022/04/30 02:55:23;;;;;;;24.67;17.42;;;;;;;;;;5014897;28;20655;-61
2022/04/30 03:00:39;;;;;;;28.20;18.08;;;;;;;;;;5014869;28;20209;-61
2022/04/30 03:03:35;;;;;;;29.05;18.02;;;;;;;;;;5013334;28;20664;-61
2022/04/30 03:06:03;;;;;;;27.98;18.65;;;;;;;;;;5014851;28;20201;-63
2022/04/30 03:08:30;;;;;;;26.08;17.88;;;;;;;;;;5015020;28;20202;-62
2022/04/30 03:10:58;;;;;;;26.02;18.52;;;;;;;;;;5014124;28;20251;-61
2022/04/30 03:13:25;;;;;;;26.63;18.65;;;;;;;;;;5014752;28;20251;-62
2022/04/30 03:15:55;;;;;;;27.63;18.40;;;;;;;;;;5014558;28;20275;-61
2022/04/30 03:23:47;;;;;;;23.13;16.02;;;;;;;;;;5014999;28;20189;-61
2022/04/30 03:26:20;;;;;;;23.10;16.80;;;;;;;;;;5014526;28;20204;-61
2022/04/30 03:28:47;;;;;;;25.48;16.77;;;;;;;;;;5014860;28;20302;-62
2022/04/30 03:31:16;;;;;;;22.27;16.42;;;;;;;;;;5014388;28;20213;-61
2022/04/30 03:33:44;;;;;;;22.58;15.88;;;;;;;;;;5014734;28;20229;-62
2022/04/30 03:36:15;;;;;;;28.20;17.08;;;;;;;;;;5015031;28;20581;-62
2022/04/30 03:38:42;;;;;;;25.70;17.23;;;;;;;;;;5015128;28;20193;-63
2022/04/30 03:41:10;;;;;;;27.00;17.20;;;;;;;;;;5014698;28;20655;-61
2022/04/30 03:43:37;;;;;;;21.55;14.45;;;;;;;;;;5017315;28;20215;-62
2022/04/30 03:46:07;;;;;;;20.73;14.25;;;;;;;;;;5018725;28;20209;-62
2022/04/30 03:48:34;;;;;;;23.23;16.42;;;;;;;;;;5018454;28;20651;-62
2022/04/30 03:51:01;;;;;;;21.77;14.45;;;;;;;;;;5019002;28;20295;-63
2022/04/30 03:53:28;;;;;;;21.48;12.98;;;;;;;;;;5018573;28;20221;-62
2022/04/30 03:55:57;;;;;;;18.70;13.70;;;;;;;;;;5018303;28;20636;-62
2022/04/30 03:58:24;;;;;;;24.23;15.32;;;;;;;;;;5018540;28;20208;-62
2022/04/30 04:00:51;;;;;;;22.52;15.27;;;;;;;;;;5018307;28;20201;-62
2022/04/30 04:03:19;;;;;;;22.80;16.10;;;;;;;;;;5018325;28;20209;-62
2022/04/30 04:05:50;;;;;;;21.88;16.08;;;;;;;;;;5018590;28;20578;-61
2022/04/30 04:08:20;;;;;;;28.88;16.92;;;;;;;;;;5020798;28;20224;-65
2022/04/30 04:10:48;;;;;;;24.83;17.42;;;;;;;;;;5049381;28;20571;-53
2022/04/30 04:18:51;;;;;;;23.35;17.77;;;;;;;;;;5044432;28;20249;-67
2022/04/30 04:21:19;;;;;;;27.17;18.20;;;;;;;;;;5044434;28;20221;-61
2022/04/30 04:26:33;;;;;;;26.13;18.95;;;;;;;;;;5037148;28;20228;-55
2022/04/30 04:29:00;;;;;;;28.70;17.80;;;;;;;;;;5036804;28;20347;-65
2022/04/30 04:31:27;;;;;;;28.90;19.50;;;;;;;;;;5026921;28;20218;-66
2022/04/30 04:33:54;;;;;;;28.25;19.63;;;;;;;;;;5018373;28;20233;-67
2022/04/30 04:36:21;;;;;;;27.15;19.40;;;;;;;;;;5030648;28;20229;-60
2022/04/30 04:38:48;;;;;;;26.33;20.63;;;;;;;;;;5016496;28;20244;-61
2022/04/30 04:41:16;;;;;;;30.85;23.60;;;;;;;;;;5016823;28;20267;-66
2022/04/30 04:43:43;;;;;;;30.15;22.52;;;;;;;;;;5021205;28;20225;-61
2022/04/30 04:46:10;;;;;;;29.17;21.13;;;;;;;;;;5025105;28;20570;-64
2022/04/30 04:48:38;;;;;;;31.17;21.80;;;;;;;;;;5035676;28;20553;-63
2022/04/30 04:51:05;;;;;;;29.50;20.52;;;;;;;;;;5035719;28;20752;-61
2022/04/30 04:53:32;;;;;;;31.30;21.75;;;;;;;;;;5040438;28;20693;-65
2022/04/30 04:56:02;;;;;;;31.08;20.92;;;;;;;;;;5055769;28;20239;-61
2022/04/30 04:58:29;;;;;;;28.40;19.67;;;;;;;;;;5056362;28;20224;-62
2022/04/30 05:00:56;;;;;;;29.85;20.83;;;;;;;;;;5056407;28;20231;-62
2022/04/30 05:03:24;;;;;;;28.90;20.65;;;;;;;;;;5052803;28;20263;-62
2022/04/30 05:05:51;;;;;;;26.10;19.15;;;;;;;;;;5035787;28;20315;-62
2022/04/30 05:08:18;;;;;;;32.08;18.33;;;;;;;;;;5035655;28;20228;-61
2022/04/30 05:10:45;;;;;;;30.65;19.15;;;;;;;;;;5036127;28;20224;-62
2022/04/30 05:13:12;;;;;;;23.83;17.85;;;;;;;;;;5035894;28;20232;-63
2022/04/30 05:15:40;;;;;;;22.58;16.85;;;;;;;;;;5036119;28;20217;-61
2022/04/30 05:18:07;;;;;;;20.40;15.20;;;;;;;;;;5035882;28;20714;-62
2022/04/30 05:20:34;;;;;;;19.85;14.40;;;;;;;;;;5036017;28;20310;-63
2022/04/30 05:23:09;;;;;;;20.30;14.57;;;;;;;;;;5036978;28;20227;-59
2022/04/30 05:25:40;;;;;;;24.10;16.23;;;;;;;;;;5034466;28;20319;-60
2022/04/30 05:28:08;;;;;;;24.92;15.32;;;;;;;;;;5034619;28;20216;-67
2022/04/30 05:30:37;;;;;;;22.35;15.38;;;;;;;;;;5034114;28;20248;-68
2022/04/30 05:33:04;;;;;;;20.95;15.20;;;;;;;;;;5033902;28;20248;-61
2022/04/30 05:35:31;;;;;;;20.67;14.95;;;;;;;;;;5032061;28;20287;-60
2022/04/30 05:37:59;;;;;;;23.38;15.52;;;;;;;;;;5034009;28;20232;-62
2022/04/30 05:40:26;;;;;;;19.45;14.07;;;;;;;;;;5034256;28;20323;-63
2022/04/30 05:42:53;;;;;;;20.25;14.07;;;;;;;;;;5031803;28;20307;-61
2022/04/30 05:45:20;;;;;;;19.67;13.80;;;;;;;;;;5033843;28;20220;-63
2022/04/30 05:47:48;;;;;;;21.75;14.57;;;;;;;;;;5033188;28;20549;-63
2022/04/30 05:50:15;;;;;;;17.98;12.85;;;;;;;;;;5034100;28;20316;-63
2022/04/30 05:52:42;;;;;;;21.55;13.90;;;;;;;;;;5033862;28;20220;-63
2022/04/30 05:55:09;;;;;;;17.55;12.68;;;;;;;;;;5035216;28;20227;-62
2022/04/30 05:57:39;;;;;;;19.42;13.80;;;;;;;;;;5033875;28;20224;-63
2022/04/30 06:00:09;;;;;;;20.90;13.57;;;;;;;;;;5034051;28;20227;-60
2022/04/30 06:02:36;;;;;;;17.52;12.73;;;;;;;;;;5033047;28;20229;-63
2022/04/30 06:05:04;;;;;;;16.95;11.77;;;;;;;;;;5033070;28;20319;-63
2022/04/30 06:07:31;;;;;;;13.35;10.40;;;;;;;;;;5030444;28;20570;-65
2022/04/30 06:09:58;;;;;;;12.25;9.32;;;;;;;;;;5029524;28;20231;-62
2022/04/30 06:12:25;;;;;;;14.10;9.68;;;;;;;;;;5034936;28;20248;-64
2022/04/30 06:14:53;;;;;;;12.60;8.80;;;;;;;;;;5034683;28;20251;-63
2022/04/30 06:17:20;;;;;;;12.68;9.23;;;;;;;;;;5034787;28;20225;-65
2022/04/30 06:19:47;;;;;;;16.92;9.43;;;;;;;;;;5034518;28;20244;-68
2022/04/30 06:22:14;;;;;;;20.45;8.73;;;;;;;;;;5034244;28;20224;-63
2022/04/30 06:24:41;;;;;;;14.85;9.68;;;;;;;;;;5050417;28;20627;-64
2022/04/30 06:27:09;;;;;;;16.20;8.90;;;;;;;;;;5054408;28;20227;-63
2022/04/30 06:29:36;;;;;;;12.98;7.95;;;;;;;;;;5054533;28;20228;-65
2022/04/30 06:32:04;;;;;;;14.07;8.80;;;;;;;;;;5054339;28;20228;-64
2022/04/30 06:34:31;;;;;;;11.00;8.52;;;;;;;;;;5053420;28;20248;-63
2022/04/30 06:36:58;;;;;;;10.75;7.97;;;;;;;;;;5053868;28;20224;-64
2022/04/30 06:39:25;;;;;;;11.55;7.97;;;;;;;;;;5054670;28;20228;-65
2022/04/30 06:41:53;;;;;;;13.48;8.27;;;;;;;;;;5054156;28;20556;-65
2022/04/30 06:44:20;;;;;;;10.00;7.28;;;;;;;;;;5054384;28;20235;-63
2022/04/30 06:46:47;;;;;;;15.10;7.88;;;;;;;;;;5053180;28;20689;-61
2022/04/30 06:49:14;;;;;;;11.43;6.40;;;;;;;;;;5054414;28;20246;-67
2022/04/30 06:51:41;;;;;;;10.68;6.57;;;;;;;;;;5034458;28;20216;-68
2022/04/30 06:57:08;;;;;;;9.85;6.03;;;;;;;;;;5035723;28;20236;-67
2022/04/30 06:59:40;;;;;;;10.75;5.63;;;;;;;;;;5033903;28;20228;-67
2022/04/30 07:02:13;;;;;;;10.45;6.45;;;;;;;;;;5015680;28;20236;-67
2022/04/30 07:04:41;;;;;;;8.90;4.95;;;;;;;;;;5014564;28;20249;-65
2022/04/30 07:07:10;;;;;;;9.32;5.68;;;;;;;;;;5013549;28;20306;-67
2022/04/30 07:09:38;;;;;;;7.75;5.13;;;;;;;;;;5013609;28;20249;-66
2022/04/30 07:12:07;;;;;;;9.00;4.50;;;;;;;;;;5026163;28;20231;-66
2022/04/30 07:14:36;;;;;;;6.38;4.43;;;;;;;;;;5032494;28;20251;-69
2022/04/30 07:17:04;;;;;;;8.85;4.55;;;;;;;;;;5031895;28;20316;-64
2022/04/30 07:19:31;;;;;;;8.98;3.85;;;;;;;;;;5033731;28;20574;-67
2022/04/30 07:21:59;;;;;;;6.38;3.85;;;;;;;;;;5015678;28;20664;-72
2022/04/30 07:24:27;;;;;;;5.95;3.85;;;;;;;;;;5041944;28;20227;-61
2022/04/30 07:26:54;;;;;;;7.78;3.40;;;;;;;;;;5051234;28;20250;-66
2022/04/30 07:29:24;;;;;;;7.68;3.55;;;;;;;;;;5027743;28;20216;-68
2022/04/30 07:31:52;;;;;;;6.50;3.13;;;;;;;;;;5017036;28;20216;-69
2022/04/30 07:34:19;;;;;;;4.85;2.92;;;;;;;;;;5033328;28;20339;-67
2022/04/30 07:36:46;;;;;;;6.95;3.63;;;;;;;;;;5033415;28;20239;-68
2022/04/30 07:39:14;;;;;;;5.85;3.22;;;;;;;;;;5033348;28;20696;-68
2022/04/30 07:41:41;;;;;;;4.90;2.88;;;;;;;;;;5033817;28;20562;-69
2022/04/30 07:44:09;;;;;;;5.28;3.60;;;;;;;;;;5033167;28;20228;-68
2022/04/30 07:46:37;;;;;;;5.18;2.90;;;;;;;;;;5033302;28;20231;-66
2022/04/30 07:49:04;;;;;;;6.47;3.38;;;;;;;;;;5033244;28;20675;-68
2022/04/30 07:51:41;;;;;;;10.13;4.00;;;;;;;;;;5032897;28;20232;-68
2022/04/30 07:54:09;;;;;;;4.07;3.35;;;;;;;;;;5032652;28;20339;-69
2022/04/30 07:56:37;;;;;;;11.38;3.83;;;;;;;;;;5038687;28;20224;-68
2022/04/30 07:59:04;;;;;;;6.20;3.40;;;;;;;;;;5033415;28;20229;-67
2022/04/30 08:01:31;;;;;;;8.95;3.70;;;;;;;;;;5033413;28;20232;-68
2022/04/30 08:03:58;;;;;;;5.93;3.55;;;;;;;;;;5033012;28;20530;-66
2022/04/30 08:06:26;;;;;;;4.78;3.53;;;;;;;;;;5032746;28;20259;-65
2022/04/30 08:08:53;;;;;;;6.53;3.50;;;;;;;;;;5032595;28;20212;-62
2022/04/30 08:11:20;;;;;;;7.55;3.85;;;;;;;;;;5034075;28;20551;-65
2022/04/30 08:13:50;;;;;;;10.50;3.70;;;;;;;;;;5033344;28;20204;-66
2022/04/30 08:16:17;;;;;;;7.38;3.90;;;;;;;;;;5034326;28;20268;-65
2022/04/30 08:18:45;;;;;;;5.40;3.58;;;;;;;;;;5033812;28;20291;-64
2022/04/30 08:21:12;;;;;;;6.00;3.97;;;;;;;;;;5033831;28;20647;-65
2022/04/30 08:23:39;;;;;;;6.13;3.78;;;;;;;;;;5033683;28;20201;-64
2022/04/30 08:26:06;;;;;;;4.85;3.50;;;;;;;;;;5033729;28;20227;-64
2022/04/30 08:28:33;;;;;;;4.38;3.58;;;;;;;;;;5035523;28;20209;-64
2022/04/30 08:31:00;;;;;;;9.35;4.50;;;;;;;;;;5036022;28;20196;-69
2022/04/30 08:33:28;;;;;;;6.38;3.97;;;;;;;;;;5034968;28;20205;-70
2022/04/30 08:35:56;;;;;;;9.02;3.88;;;;;;;;;;5036098;28;20650;-68
2022/04/30 08:38:23;;;;;;;5.50;3.55;;;;;;;;;;5035829;28;20201;-70
2022/04/30 08:40:51;;;;;;;5.47;3.58;;;;;;;;;;5035280;28;20262;-69
2022/04/30 08:43:20;;;;;;;5.85;3.60;;;;;;;;;;5035309;28;20192;-70
2022/04/30 08:45:47;;;;;;;6.38;3.60;;;;;;;;;;5035364;28;20280;-63
2022/04/30 08:48:16;;;;;;;7.82;3.53;;;;;;;;;;5037098;28;20201;-65
2022/04/30 08:50:47;;;;;;;8.23;3.45;;;;;;;;;;5036889;28;20234;-64
2022/04/30 08:53:14;;;;;;;6.63;3.15;;;;;;;;;;5037542;28;20212;-64
2022/04/30 08:55:42;;;;;;;4.18;3.25;;;;;;;;;;5036168;28;20239;-64
2022/04/30 08:58:09;;;;;;;5.20;3.35;;;;;;;;;;5036046;28;20207;-64
2022/04/30 09:00:44;;;;;;;7.50;3.65;;;;;;;;;;5036264;28;20208;-65
2022/04/30 09:03:16;;;;;;;18.45;5.05;;;;;;;;;;5034308;28;20197;-64
2022/04/30 09:05:44;;;;;;;9.82;4.85;;;;;;;;;;5036740;28;20535;-64
2022/04/30 09:08:12;;;;;;;7.78;3.38;;;;;;;;;;5037232;28;20266;-64
2022/04/30 09:10:41;;;;;;;5.18;3.80;;;;;;;;;;5036316;28;20541;-66
2022/04/30 09:13:16;;;;;;;4.80;3.10;;;;;;;;;;5034695;28;20228;-65
2022/04/30 09:15:46;;;;;;;6.15;3.65;;;;;;;;;;5034680;28;20220;-65
2022/04/30 09:18:14;;;;;;;6.43;3.70;;;;;;;;;;5035285;28;20228;-65
2022/04/30 09:20:43;;;;;;;7.35;3.80;;;;;;;;;;5034611;28;20201;-65
2022/04/30 09:23:11;;;;;;;9.27;3.80;;;;;;;;;;5035056;28;20208;-65
2022/04/30 09:25:50;;;;;;;4.82;3.58;;;;;;;;;;5033780;28;20228;-65
2022/04/30 09:28:30;;;;;;;7.20;3.70;;;;;;;;;;5036138;28;20611;-64
2022/04/30 09:31:18;;;;;;;4.75;3.45;;;;;;;;;;5036242;28;20195;-65
2022/04/30 09:33:48;;;;;;;9.30;3.63;;;;;;;;;;5036186;28;20189;-65
2022/04/30 09:39:13;;;;;;;6.78;3.80;;;;;;;;;;5036039;28;20196;-64
2022/04/30 09:41:40;;;;;;;6.97;3.88;;;;;;;;;;5036511;28;20239;-65
2022/04/30 09:44:12;;;;;;;5.95;3.38;;;;;;;;;;5036048;28;20559;-65
2022/04/30 09:46:41;;;;;;;7.75;3.50;;;;;;;;;;5036025;28;20178;-64
2022/04/30 09:54:43;;;;;;;4.70;3.70;;;;;;;;;;5035750;28;20228;-70
2022/04/30 09:57:14;;;;;;;5.50;3.75;;;;;;;;;;5035941;28;20223;-65
2022/04/30 09:59:43;;;;;;;6.80;4.03;;;;;;;;;;5034938;28;20280;-66
2022/04/30 10:02:13;;;;;;;8.52;3.70;;;;;;;;;;5035263;28;20212;-67
2022/04/30 10:04:46;;;;;;;5.03;3.72;;;;;;;;;;5035718;28;20192;-68
2022/04/30 10:07:19;;;;;;;7.72;3.50;;;;;;;;;;5034888;28;20193;-67
2022/04/30 10:10:12;;;;;;;6.03;3.53;;;;;;;;;;5036006;28;20515;-66
2022/04/30 10:12:48;;;;;;;9.65;3.80;;;;;;;;;;5034710;28;20541;-66
2022/04/30 10:15:38;;;;;;;6.32;3.60;;;;;;;;;;5034628;28;20654;-67
2022/04/30 10:18:08;;;;;;;5.55;3.45;;;;;;;;;;5035061;28;20224;-67
2022/04/30 10:20:35;;;;;;;62.33;11.75;;;;;;;;;;5035208;28;20250;-67
2022/04/30 10:23:04;;;;;;;5.57;3.47;;;;;;;;;;5034888;28;20200;-69
2022/04/30 10:25:37;;;;;;;5.90;3.45;;;;;;;;;;5035417;28;20215;-68
2022/04/30 10:28:04;;;;;;;6.15;3.38;;;;;;;;;;5035478;28;20189;-69
2022/04/30 10:30:33;;;;;;;5.03;3.33;;;;;;;;;;5032432;28;20570;-68
2022/04/30 10:33:02;;;;;;;9.00;3.72;;;;;;;;;;5034813;28;20203;-69
2022/04/30 10:35:33;;;;;;;7.82;4.32;;;;;;;;;;5033269;28;20232;-68
2022/04/30 10:38:15;;;;;;;6.43;3.97;;;;;;;;;;5023048;28;20220;-69
2022/04/30 10:40:47;;;;;;;6.20;3.35;;;;;;;;;;5015494;28;20198;-68
2022/04/30 10:43:43;;;;;;;6.40;3.75;;;;;;;;;;5015198;28;20199;-69
2022/04/30 10:46:21;;;;;;;9.57;4.13;;;;;;;;;;5015693;28;20190;-69
2022/04/30 10:48:49;;;;;;;4.97;3.70;;;;;;;;;;5015296;28;20574;-67
2022/04/30 10:51:38;;;;;;;8.20;3.33;;;;;;;;;;5015344;28;20197;-67
2022/04/30 10:54:08;;;;;;;7.13;3.85;;;;;;;;;;5011769;28;20221;-66
2022/04/30 10:56:38;;;;;;;8.65;3.55;;;;;;;;;;5015306;28;20205;-69
2022/04/30 10:59:06;;;;;;;7.40;3.55;;;;;;;;;;5015103;28;20551;-69
2022/04/30 11:01:34;;;;;;;8.52;3.80;;;;;;;;;;5014960;28;20197;-69
2022/04/30 11:04:02;;;;;;;21.25;4.82;;;;;;;;;;5015444;28;20205;-69
2022/04/30 11:06:31;;;;;;;8.85;3.70;;;;;;;;;;5015151;28;20216;-68
2022/04/30 11:09:04;;;;;;;5.78;3.90;;;;;;;;;;5014874;28;20636;-69
2022/04/30 11:11:32;;;;;;;6.13;3.95;;;;;;;;;;5014985;28;20186;-69
2022/04/30 11:14:10;;;;;;;8.05;3.83;;;;;;;;;;5015078;28;20632;-69
2022/04/30 11:16:44;;;;;;;5.65;3.92;;;;;;;;;;5015269;28;20221;-68
2022/04/30 11:19:13;;;;;;;5.93;3.58;;;;;;;;;;5014830;28;20193;-68
2022/04/30 11:21:41;;;;;;;6.72;3.70;;;;;;;;;;5014673;28;20201;-68
2022/04/30 11:24:09;;;;;;;6.18;3.47;;;;;;;;;;5014574;28;20698;-68
2022/04/30 11:26:37;;;;;;;5.30;3.72;;;;;;;;;;5019294;28;20239;-67
2022/04/30 11:29:12;;;;;;;15.73;6.55;;;;;;;;;;5045717;28;20220;-71
2022/04/30 11:31:42;;;;;;;49.17;12.27;;;;;;;;;;5045218;28;20269;-71
2022/04/30 11:34:13;;;;;;;19.80;6.30;;;;;;;;;;5041259;28;20286;-69
2022/04/30 11:36:42;;;;;;;7.15;3.38;;;;;;;;;;5040730;28;20361;-69
2022/04/30 11:39:11;;;;;;;6.53;3.20;;;;;;;;;;5041751;28;20240;-70
2022/04/30 11:41:40;;;;;;;7.13;3.40;;;;;;;;;;5045157;28;20295;-69
2022/04/30 11:44:10;;;;;;;7.65;4.03;;;;;;;;;;5033527;28;20315;-70
2022/04/30 11:46:43;;;;;;;5.25;3.65;;;;;;;;;;5033613;28;20225;-68
2022/04/30 11:49:18;;;;;;;5.78;3.25;;;;;;;;;;5032843;28;20580;-68
2022/04/30 11:52:05;;;;;;;5.47;3.70;;;;;;;;;;5033364;28;20604;-69
2022/04/30 11:54:36;;;;;;;5.70;3.17;;;;;;;;;;5032773;28;20229;-70
2022/04/30 11:57:04;;;;;;;4.95;3.28;;;;;;;;;;5032815;28;20229;-68
2022/04/30 11:59:36;;;;;;;5.03;3.35;;;;;;;;;;5033886;28;20221;-67
2022/04/30 12:02:14;;;;;;;7.97;3.58;;;;;;;;;;5033199;28;20239;-65
2022/04/30 12:04:42;;;;;;;6.55;4.00;;;;;;;;;;5037731;28;20224;-69
2022/04/30 12:07:11;;;;;;;7.28;3.70;;;;;;;;;;5036942;28;20302;-68
2022/04/30 12:09:44;;;;;;;7.13;3.40;;;;;;;;;;5037253;28;20311;-65
2022/04/30 12:12:17;;;;;;;5.20;3.50;;;;;;;;;;5048398;28;20802;-67
2022/04/30 12:14:47;;;;;;;6.28;3.33;;;;;;;;;;5057192;28;20242;-69
2022/04/30 12:17:16;;;;;;;6.22;3.42;;;;;;;;;;5057528;28;20231;-72
2022/04/30 12:25:20;;;;;;;4.47;3.17;;;;;;;;;;5036982;28;20232;-65
2022/04/30 12:27:56;;;;;;;9.25;3.42;;;;;;;;;;5036864;28;20683;-59
2022/04/30 12:30:52;;;;;;;8.05;3.35;;;;;;;;;;5036425;28;20217;-67
2022/04/30 12:33:22;;;;;;;9.82;3.38;;;;;;;;;;5036993;28;20228;-65
2022/04/30 12:35:56;;;;;;;10.65;3.47;;;;;;;;;;5037089;28;20322;-65
2022/04/30 12:38:24;;;;;;;6.03;3.30;;;;;;;;;;5036157;28;20220;-66
2022/04/30 12:40:53;;;;;;;5.95;3.00;;;;;;;;;;5037204;28;20232;-66
2022/04/30 12:43:20;;;;;;;6.75;3.10;;;;;;;;;;5056594;28;20311;-65
2022/04/30 12:45:48;;;;;;;5.43;3.45;;;;;;;;;;5056697;28;20228;-65
2022/04/30 12:48:15;;;;;;;6.13;3.20;;;;;;;;;;5056784;28;20220;-63
2022/04/30 12:50:43;;;;;;;5.18;2.85;;;;;;;;;;5040734;28;20243;-65
2022/04/30 12:53:10;;;;;;;5.97;3.15;;;;;;;;;;5034767;28;20235;-65
2022/04/30 12:55:38;;;;;;;7.68;3.75;;;;;;;;;;5034849;28;20351;-66
2022/04/30 12:58:07;;;;;;;6.65;3.80;;;;;;;;;;5016366;28;20261;-65
2022/04/30 13:00:35;;;;;;;5.55;3.38;;;;;;;;;;5017075;28;20224;-65
2022/04/30 13:03:05;;;;;;;7.63;3.47;;;;;;;;;;5016464;28;20236;-68
2022/04/30 13:05:36;;;;;;;11.63;4.07;;;;;;;;;;5016905;28;20304;-65
2022/04/30 13:08:04;;;;;;;7.68;3.60;;;;;;;;;;5016252;28;20229;-66
2022/04/30 13:13:32;;;;;;;7.65;3.67;;;;;;;;;;5036191;28;20618;-65
2022/04/30 13:16:09;;;;;;;4.90;3.42;;;;;;;;;;5034958;28;20299;-64
2022/04/30 13:18:37;;;;;;;6.82;4.25;;;;;;;;;;5036546;28;20228;-65
2022/04/30 13:21:05;;;;;;;5.82;3.55;;;;;;;;;;5036082;28;20569;-66
2022/04/30 13:23:32;;;;;;;15.90;4.38;;;;;;;;;;5036101;28;20224;-64
2022/04/30 13:26:01;;;;;;;4.68;3.55;;;;;;;;;;5035390;28;20236;-66
2022/04/30 13:28:28;;;;;;;7.13;3.20;;;;;;;;;;5035867;28;20291;-65
2022/04/30 13:30:55;;;;;;;6.75;3.20;;;;;;;;;;5036056;28;20240;-65
2022/04/30 13:33:22;;;;;;;6.57;3.28;;;;;;;;;;5035490;28;20225;-66
2022/04/30 13:35:49;;;;;;;17.48;4.10;;;;;;;;;;5035809;28;20228;-67
2022/04/30 13:38:16;;;;;;;15.93;3.55;;;;;;;;;;5031763;28;20217;-63
2022/04/30 13:40:44;;;;;;;13.68;5.90;;;;;;;;;;5015670;28;20229;-69
2022/04/30 13:43:11;;;;;;;12.02;3.40;;;;;;;;;;5056034;28;20215;-72
2022/04/30 13:45:38;;;;;;;7.70;3.88;;;;;;;;;;5056414;28;20230;-68
2022/04/30 13:48:06;;;;;;;53.83;5.68;;;;;;;;;;5055328;28;20200;-71
2022/04/30 13:50:33;;;;;;;7.57;3.53;;;;;;;;;;5056346;28;20232;-51
2022/04/30 13:53:01;;;;;;;6.00;3.53;;;;;;;;;;5055970;28;20227;-50
2022/04/30 13:55:28;;;;;;;10.65;3.85;;;;;;;;;;5055975;28;20227;-51
2022/04/30 13:57:55;;;;;;;30.33;8.52;;;;;;;;;;5056344;28;20266;-53
2022/04/30 14:00:22;;;;;;;11.68;4.00;;;;;;;;;;5055213;28;20200;-54
2022/04/30 14:02:50;;;;;;;7.32;3.60;;;;;;;;;;5055743;28;20232;-59
2022/04/30 14:05:17;;;;;;;7.65;3.78;;;;;;;;;;5045418;28;20291;-60
2022/04/30 14:07:44;;;;;;;7.07;3.80;;;;;;;;;;5035541;28;20204;-50
2022/04/30 14:10:12;;;;;;;6.32;3.78;;;;;;;;;;5035993;28;20197;-55
2022/04/30 14:12:45;;;;;;;6.90;3.50;;;;;;;;;;5035022;28;20196;-58
2022/04/30 14:15:14;;;;;;;5.60;3.75;;;;;;;;;;5035730;28;20547;-58
2022/04/30 14:20:27;;;;;;;7.65;3.70;;;;;;;;;;5034934;28;20197;-57
2022/04/30 14:22:55;;;;;;;12.52;3.97;;;;;;;;;;5035323;28;20250;-57
2022/04/30 14:25:22;;;;;;;8.40;4.22;;;;;;;;;;5034995;28;20207;-58
2022/04/30 14:27:50;;;;;;;9.45;3.58;;;;;;;;;;5035604;28;20539;-59
2022/04/30 14:30:19;;;;;;;10.20;3.70;;;;;;;;;;5035186;28;20635;-58
2022/04/30 14:32:48;;;;;;;12.15;3.90;;;;;;;;;;5035232;28;20292;-58
2022/04/30 14:35:16;;;;;;;9.98;3.67;;;;;;;;;;5035113;28;20216;-59
2022/04/30 14:37:44;;;;;;;7.60;3.65;;;;;;;;;;5036109;28;20304;-60
2022/04/30 14:40:16;;;;;;;13.05;3.25;;;;;;;;;;5035293;28;20291;-59
2022/04/30 14:42:44;;;;;;;7.00;3.97;;;;;;;;;;5035070;28;20204;-59
2022/04/30 14:45:11;;;;;;;7.32;3.60;;;;;;;;;;5035262;28;20204;-59
2022/04/30 14:47:38;;;;;;;6.45;3.70;;;;;;;;;;5035036;28;20204;-59
2022/04/30 14:50:07;;;;;;;6.45;3.53;;;;;;;;;;5034680;28;20244;-59
2022/04/30 14:52:35;;;;;;;5.63;3.70;;;;;;;;;;5035011;28;20205;-59
2022/04/30 14:55:04;;;;;;;6.78;3.47;;;;;;;;;;5035015;28;20715;-59
2022/04/30 14:57:31;;;;;;;4.75;3.75;;;;;;;;;;5034710;28;20220;-59
2022/04/30 14:59:59;;;;;;;434.10;24.65;;;;;;;;;;5034734;28;20208;-57
2022/04/30 15:02:25;;;;;;;10.30;3.90;;;;;;;;;;5035240;28;20212;-57
2022/04/30 15:04:53;;;;;;;38.70;5.15;;;;;;;;;;5034758;28;20196;-58
2022/04/30 15:07:20;;;;;;;7.60;3.83;;;;;;;;;;5034541;28;20670;-56
2022/04/30 15:09:47;;;;;;;6.00;3.95;;;;;;;;;;5034504;28;20371;-59
2022/04/30 15:12:21;;;;;;;7.10;3.42;;;;;;;;;;5033776;28;20193;-56
2022/04/30 15:14:48;;;;;;;4.82;3.42;;;;;;;;;;5034777;28;20209;-58
2022/04/30 15:17:15;;;;;;;6.13;3.90;;;;;;;;;;5034403;28;20231;-53
2022/04/30 15:19:42;;;;;;;7.13;3.58;;;;;;;;;;5018054;28;20235;-60
2022/04/30 15:22:10;;;;;;;6.90;3.50;;;;;;;;;;5042966;28;20303;-58
2022/04/30 15:24:37;;;;;;;5.50;3.40;;;;;;;;;;5045887;28;20232;-59
2022/04/30 15:27:05;;;;;;;5.72;3.33;;;;;;;;;;5042121;28;20232;-58